Terminal Aerodrome Forecast
Issued by NWS Twin Cities, MN

Home | Current Version | Previous Version | Text Only | Print | Product List | Glossary On
Versions: 1 2 3 4 5 6 7 8 9 10 11 12 13 14 15 16 17
896
FTUS43 KMPX 280532
TAFEAU
TAF
KEAU 280532Z 2806/2906 08003KT P6SM FEW060 SCT200
     FM280800 VRB02KT 3SM BR FEW200
     FM281100 00000KT 1SM BR SCT001
     FM281300 04003KT 3SM BR FEW200
     FM281500 07006KT P6SM FEW200=

USA.gov is the U.S. government's official web portal to all federal, state and local government web resources and services.